createdAt,value
2018-05-16T05:01:48.812Z,10.07
2018-05-16T05:04:20.693Z,8.20
2018-05-16T05:06:52.910Z,9.13
2018-05-16T05:09:24.794Z,9.20
2018-05-16T05:11:56.696Z,8.80
2018-05-16T05:14:28.575Z,8.55
2018-05-16T05:17:01.309Z,9.90
2018-05-16T05:19:33.180Z,8.77
2018-05-16T05:22:05.104Z,8.10
2018-05-16T05:24:36.982Z,8.18
2018-05-16T05:27:09.211Z,9.60
2018-05-16T05:29:41.105Z,10.95
2018-05-16T05:32:12.995Z,7.90
2018-05-16T05:34:44.893Z,8.98
2018-05-16T05:37:16.811Z,6.62
2018-05-16T05:39:48.689Z,7.90
2018-05-16T05:42:21.355Z,7.80
2018-05-16T05:44:54.042Z,6.78
2018-05-16T05:47:25.950Z,9.80
2018-05-16T05:49:57.845Z,8.43
2018-05-16T05:52:29.744Z,8.07
2018-05-16T05:55:02.425Z,9.48
2018-05-16T05:57:35.079Z,8.90
2018-05-16T06:00:06.979Z,8.73
2018-05-16T06:02:38.865Z,7.45
2018-05-16T06:05:11.534Z,6.97
2018-05-16T06:07:43.446Z,6.87
2018-05-16T06:10:16.091Z,7.45
2018-05-16T06:12:48.808Z,5.80
2018-05-16T06:15:20.648Z,7.82
2018-05-16T06:17:52.530Z,8.27
2018-05-16T06:20:26.115Z,9.18
2018-05-16T06:22:58.015Z,7.70
2018-05-16T06:25:29.902Z,5.72
2018-05-16T06:28:01.790Z,9.00
2018-05-16T06:30:33.882Z,10.70
2018-05-16T06:33:06.531Z,8.55
2018-05-16T06:35:38.407Z,7.00
2018-05-16T06:38:10.598Z,7.43
2018-05-16T06:40:42.511Z,10.07
2018-05-16T06:43:14.479Z,9.05
2018-05-16T06:45:46.439Z,11.30
2018-05-16T06:48:18.276Z,7.43
2018-05-16T06:50:50.158Z,5.72
2018-05-16T06:53:22.269Z,8.80
2018-05-16T06:55:54.175Z,8.40
2018-05-16T06:58:26.071Z,10.02
2018-05-16T07:00:58.719Z,10.38
2018-05-16T07:03:30.635Z,10.00
2018-05-16T07:06:02.530Z,10.32
2018-05-16T07:08:34.426Z,10.90
2018-05-16T07:11:07.096Z,8.70
2018-05-16T07:13:39.059Z,8.45
2018-05-16T07:16:10.877Z,9.95
2018-05-16T07:18:42.778Z,9.55
2018-05-16T07:21:14.672Z,12.82
2018-05-16T07:23:46.593Z,7.22
2018-05-16T07:26:18.496Z,11.77
2018-05-16T07:28:50.452Z,7.93
2018-05-16T07:31:22.518Z,9.73
2018-05-16T07:33:54.409Z,7.82
2018-05-16T07:36:26.285Z,11.95
2018-05-16T07:38:58.185Z,9.18
2018-05-16T07:41:30.858Z,12.05
2018-05-16T07:44:03.519Z,8.52
2018-05-16T07:46:35.424Z,9.77
2018-05-16T07:49:07.316Z,10.50
2018-05-16T07:51:39.209Z,9.65
2018-05-16T07:54:11.102Z,11.02
2018-05-16T07:56:42.982Z,9.10
2018-05-16T07:59:15.126Z,11.10
2018-05-16T08:01:47.016Z,10.07
2018-05-16T08:04:18.912Z,8.88
2018-05-16T08:06:50.796Z,10.80
2018-05-16T08:09:23.456Z,11.88
2018-05-16T08:11:55.331Z,11.30
2018-05-16T08:14:27.986Z,13.20
2018-05-16T08:17:00.193Z,12.43
2018-05-16T08:19:32.094Z,9.55
2018-05-16T08:22:03.982Z,13.50
2018-05-16T08:24:35.874Z,21.02
2018-05-16T08:27:07.764Z,7.50
2018-05-16T08:29:39.662Z,13.93
2018-05-16T08:32:11.556Z,10.45
2018-05-16T08:34:43.459Z,10.38
2018-05-16T08:37:15.339Z,10.95
2018-05-16T08:39:47.231Z,14.63
2018-05-16T08:42:19.125Z,32.63
2018-05-16T08:44:51.032Z,12.18
2018-05-16T08:47:22.906Z,9.25
2018-05-16T08:49:55.555Z,9.45
2018-05-16T08:52:27.439Z,10.23
2018-05-16T08:55:00.119Z,9.85
2018-05-16T08:57:32.763Z,15.77
2018-05-16T09:00:04.927Z,10.32
2018-05-16T09:02:37.145Z,11.63
2018-05-16T09:05:09.051Z,10.70
2018-05-16T09:07:40.940Z,8.13
2018-05-16T09:10:12.834Z,9.63
2018-05-16T09:12:44.723Z,8.60
2018-05-16T09:15:16.621Z,9.07
2018-05-16T09:17:48.511Z,13.75
2018-05-16T09:20:20.435Z,9.32
2018-05-16T09:22:52.334Z,9.88
2018-05-16T09:25:25.080Z,10.85
2018-05-16T09:27:56.968Z,10.13
2018-05-16T09:30:29.638Z,12.80
2018-05-16T09:33:02.319Z,9.27
2018-05-16T09:35:35.210Z,9.65
2018-05-16T09:38:07.384Z,8.70
2018-05-16T09:40:39.415Z,9.63
2018-05-16T09:43:11.400Z,9.55
2018-05-16T09:45:44.440Z,9.88
2018-05-16T09:48:16.329Z,10.18
2018-05-16T09:50:49.002Z,10.02
2018-05-16T09:53:21.664Z,11.00
2018-05-16T09:55:53.559Z,8.88
2018-05-16T09:58:26.351Z,9.47
2018-05-16T10:00:58.320Z,10.07
2018-05-16T10:03:30.207Z,8.53
2018-05-16T10:06:02.109Z,11.18
2018-05-16T10:08:34.810Z,11.02
2018-05-16T10:11:07.471Z,10.20
2018-05-16T10:13:40.198Z,10.00
2018-05-16T10:16:12.138Z,9.63
2018-05-16T10:18:44.082Z,8.85
2018-05-16T10:21:16.750Z,11.80
2018-05-16T10:23:48.750Z,8.18
2018-05-16T10:26:21.520Z,10.77
2018-05-16T10:28:53.469Z,11.25
2018-05-16T10:31:26.178Z,11.70
2018-05-16T10:33:58.081Z,14.82
2018-05-16T10:36:30.002Z,33.60
2018-05-16T10:39:01.959Z,23.13
2018-05-16T10:41:34.777Z,14.20
2018-05-16T10:44:06.627Z,10.30
2018-05-16T10:46:38.544Z,8.17
2018-05-16T10:49:11.200Z,8.30
2018-05-16T10:51:43.867Z,11.43
2018-05-16T10:54:15.782Z,16.57
2018-05-16T10:56:47.757Z,8.88
2018-05-16T10:59:19.715Z,13.37
2018-05-16T11:01:51.631Z,16.03
2018-05-16T11:04:24.275Z,12.20
2018-05-16T11:06:57.445Z,12.63
2018-05-16T11:09:29.342Z,10.47
2018-05-16T11:12:03.082Z,12.43
2018-05-16T11:14:35.246Z,10.83
2018-05-16T11:17:07.134Z,11.07
2018-05-16T11:19:39.022Z,9.17
2018-05-16T11:22:10.915Z,9.43
2018-05-16T11:24:43.711Z,10.20
2018-05-16T11:27:15.612Z,12.18
2018-05-16T11:29:47.494Z,11.93
2018-05-16T11:32:19.400Z,8.67
2018-05-16T11:34:51.276Z,10.88
2018-05-16T11:37:23.416Z,12.65
2018-05-16T11:39:55.307Z,6.45
2018-05-16T11:42:27.215Z,10.57
2018-05-16T11:44:59.077Z,9.18
2018-05-16T11:47:31.737Z,12.27
2018-05-16T11:50:03.614Z,9.27
2018-05-16T11:52:36.280Z,6.35
2018-05-16T11:55:08.174Z,8.23
2018-05-16T11:57:40.834Z,13.18
2018-05-16T12:00:13.490Z,8.40
2018-05-16T12:02:45.405Z,7.22
2018-05-16T12:05:18.282Z,17.73
2018-05-16T12:07:50.446Z,11.05
2018-05-16T12:10:22.322Z,11.57
2018-05-16T12:12:54.218Z,8.95
2018-05-16T12:15:26.435Z,9.15
2018-05-16T12:17:58.597Z,12.93
2018-05-16T12:20:30.490Z,11.63
2018-05-16T12:23:02.391Z,7.60
2018-05-16T12:25:34.268Z,12.65
2018-05-16T12:28:06.927Z,8.25
2018-05-16T12:30:39.586Z,11.32
2018-05-16T12:33:11.474Z,10.07
2018-05-16T12:35:44.126Z,9.82
2018-05-16T12:38:16.067Z,11.10
2018-05-16T12:40:47.970Z,33.03
2018-05-16T12:43:19.862Z,12.52
2018-05-16T12:45:51.761Z,12.50
2018-05-16T12:48:24.014Z,10.57
2018-05-16T12:50:55.901Z,13.62
2018-05-16T12:53:28.152Z,13.98
2018-05-16T12:56:00.003Z,21.23
2018-05-16T12:58:31.898Z,7.00
2018-05-16T13:01:03.790Z,9.18
2018-05-16T13:03:35.709Z,7.07
2018-05-16T13:06:07.600Z,11.20
2018-05-16T13:08:40.599Z,10.77
2018-05-16T13:11:12.476Z,7.90
2018-05-16T13:13:44.376Z,10.07
2018-05-16T13:16:16.263Z,14.20
2018-05-16T13:18:48.948Z,7.37
2018-05-16T13:21:21.649Z,10.93
2018-05-16T13:23:53.512Z,10.77
2018-05-16T13:26:25.381Z,8.23
2018-05-16T13:28:57.282Z,9.50
2018-05-16T13:31:29.162Z,7.57
2018-05-16T13:34:01.860Z,7.10
2018-05-16T13:36:33.742Z,11.47
2018-05-16T13:39:05.655Z,7.73
2018-05-16T13:41:37.525Z,9.17
2018-05-16T13:44:10.187Z,6.90
2018-05-16T13:46:42.070Z,7.77
2018-05-16T13:49:14.737Z,7.23
2018-05-16T13:51:47.379Z,8.17
2018-05-16T13:54:19.306Z,11.23
2018-05-16T13:56:51.186Z,10.03
2018-05-16T13:59:23.130Z,9.03
2018-05-16T14:01:55.019Z,8.87
2018-05-16T14:04:26.936Z,7.07
2018-05-16T14:06:58.814Z,5.73
2018-05-16T14:09:30.711Z,6.07
2018-05-16T14:12:02.586Z,6.20
2018-05-16T14:14:34.482Z,6.07
2018-05-16T14:17:06.367Z,6.27
2018-05-16T14:19:38.502Z,5.20
2018-05-16T14:22:10.670Z,8.17
2018-05-16T14:24:42.566Z,8.20
2018-05-16T14:27:14.449Z,9.60
2018-05-16T14:29:46.662Z,8.97
2018-05-16T14:32:18.529Z,5.67
2018-05-16T14:34:50.414Z,6.57
2018-05-16T14:37:22.310Z,6.70
2018-05-16T14:39:54.213Z,6.43
2018-05-16T14:42:26.089Z,5.83
2018-05-16T14:44:58.019Z,5.30
2018-05-16T14:47:30.665Z,5.93
2018-05-16T14:50:02.870Z,5.33
2018-05-16T14:52:34.748Z,6.50
2018-05-16T14:55:06.642Z,7.27
2018-05-16T14:57:38.520Z,8.27
2018-05-16T15:00:10.714Z,6.50
2018-05-16T15:02:42.589Z,5.62
2018-05-16T15:05:14.491Z,5.23
2018-05-16T15:07:46.640Z,9.70
2018-05-16T15:10:18.528Z,7.53
2018-05-16T15:12:50.414Z,4.78
2018-05-16T15:15:23.165Z,8.00
2018-05-16T15:17:55.037Z,7.03
2018-05-16T15:20:26.934Z,5.35
2018-05-16T15:22:59.919Z,6.30
2018-05-16T15:25:31.834Z,6.87
2018-05-16T15:28:04.042Z,5.10
2018-05-16T15:30:35.943Z,8.15
2018-05-16T15:33:07.877Z,7.45
2018-05-16T15:35:40.509Z,6.87
2018-05-16T15:38:12.383Z,8.87
2018-05-16T15:40:45.065Z,7.65
2018-05-16T15:43:17.961Z,9.48
2018-05-16T15:45:49.876Z,6.15
2018-05-16T15:48:21.748Z,7.47
2018-05-16T15:50:53.702Z,7.45
2018-05-16T15:53:25.578Z,9.00
2018-05-16T15:55:57.474Z,10.15
2018-05-16T15:58:29.631Z,8.45
2018-05-16T16:01:01.543Z,7.62
2018-05-16T16:03:33.664Z,9.57
2018-05-16T16:06:05.569Z,6.43
2018-05-16T16:08:37.448Z,8.30
2018-05-16T16:11:09.346Z,6.60
2018-05-16T16:13:41.227Z,8.65
2018-05-16T16:16:13.130Z,6.15
2018-05-16T16:18:45.012Z,7.30
2018-05-16T16:21:17.665Z,7.15
2018-05-16T16:23:49.870Z,6.87
2018-05-16T16:26:21.783Z,8.53
2018-05-16T16:28:53.662Z,6.60
2018-05-16T16:31:25.603Z,7.77
2018-05-16T16:33:57.494Z,7.43
2018-05-16T16:36:30.163Z,8.53
2018-05-16T16:39:02.393Z,8.43
2018-05-16T16:41:34.273Z,8.17
2018-05-16T16:44:06.150Z,8.00
2018-05-16T16:46:38.858Z,6.90
2018-05-16T16:49:10.743Z,7.67
2018-05-16T16:51:42.885Z,7.57
2018-05-16T16:54:14.782Z,8.90
2018-05-16T16:56:47.010Z,7.57
2018-05-16T16:59:18.887Z,7.20
2018-05-16T17:01:50.795Z,8.40
2018-05-16T17:04:22.690Z,11.20
2018-05-16T17:06:55.354Z,7.20
2018-05-16T17:09:28.014Z,9.17
2018-05-16T17:11:59.914Z,9.57
2018-05-16T17:14:31.786Z,7.77
2018-05-16T17:17:03.937Z,6.73
2018-05-16T17:19:36.102Z,9.37
2018-05-16T17:22:08.015Z,11.83
2018-05-16T17:24:39.894Z,16.53
2018-05-16T17:27:12.090Z,13.67
2018-05-16T17:29:44.198Z,17.73
2018-05-16T17:32:16.102Z,19.60
2018-05-16T17:34:48.752Z,16.60
2018-05-16T17:37:20.705Z,20.50
2018-05-16T17:39:52.822Z,19.23
2018-05-16T17:42:24.739Z,14.77
2018-05-16T17:44:56.614Z,16.87
2018-05-16T17:47:30.462Z,14.40
2018-05-16T17:50:02.358Z,11.07
2018-05-16T17:52:34.254Z,13.47
2018-05-16T17:55:07.154Z,17.07
2018-05-16T17:57:39.051Z,16.53
2018-05-16T18:00:10.934Z,15.23
2018-05-16T18:02:43.141Z,29.80
2018-05-16T18:05:15.023Z,39.27
2018-05-16T18:07:46.954Z,20.83
2018-05-16T18:10:19.601Z,39.77
2018-05-16T18:16:21.733Z,44.70
2018-05-16T18:18:53.899Z,25.23
2018-05-16T18:21:25.771Z,42.00
2018-05-16T18:23:57.678Z,31.57
2018-05-16T18:26:29.554Z,27.20
2018-05-16T18:29:02.210Z,33.33
2018-05-16T18:31:34.085Z,48.50
2018-05-16T18:34:06.282Z,33.00
2018-05-16T18:36:38.169Z,20.10
2018-05-16T18:39:10.074Z,21.83
2018-05-16T18:41:42.274Z,14.67
2018-05-16T18:44:14.450Z,27.63
2018-05-16T18:46:46.354Z,26.27
2018-05-16T18:49:18.626Z,20.57
2018-05-16T18:51:50.457Z,18.03
2018-05-16T18:54:22.454Z,26.33
2018-05-16T18:56:54.334Z,27.10
2018-05-16T18:59:27.006Z,29.83
2018-05-16T19:02:00.446Z,21.77
2018-05-16T19:04:32.353Z,26.47
2018-05-16T19:07:04.230Z,22.83
2018-05-16T19:09:36.907Z,22.77
2018-05-16T19:12:10.430Z,19.50
2018-05-16T19:14:42.925Z,21.20
2018-05-16T19:17:14.814Z,29.27
2018-05-16T19:19:46.787Z,31.00
2018-05-16T19:22:18.609Z,26.93
2018-05-16T19:24:50.515Z,33.10
2018-05-16T19:27:23.165Z,24.90
2018-05-16T19:29:55.075Z,24.87
2018-05-16T19:32:27.728Z,34.83
2018-05-16T19:34:59.926Z,23.47
2018-05-16T19:37:31.802Z,29.47
2018-05-16T19:40:03.707Z,25.53
2018-05-16T19:42:35.603Z,41.67
2018-05-16T19:45:07.534Z,34.83
2018-05-16T19:47:39.415Z,30.10
2018-05-16T19:50:12.078Z,27.37
2018-05-16T19:52:43.960Z,36.53
2018-05-16T19:55:16.614Z,30.10
2018-05-16T19:57:48.494Z,24.87
2018-05-16T20:00:21.169Z,27.37
2018-05-16T20:02:53.823Z,21.03
2018-05-16T20:05:25.724Z,31.10
2018-05-16T20:07:57.607Z,21.57
2018-05-16T20:10:29.751Z,23.37
2018-05-16T20:13:01.618Z,30.33
2018-05-16T20:15:33.523Z,28.67
2018-05-16T20:18:05.407Z,26.67
2018-05-16T20:20:37.597Z,24.07
2018-05-16T20:23:09.474Z,19.13
2018-05-16T20:25:41.618Z,27.60
2018-05-16T20:28:13.501Z,23.20
2018-05-16T20:30:45.410Z,24.50
2018-05-16T20:33:17.286Z,20.77
2018-05-16T20:35:49.953Z,25.57
2018-05-16T20:38:21.836Z,21.57
2018-05-16T20:40:53.737Z,24.27
2018-05-16T20:43:25.618Z,24.13
2018-05-16T20:45:57.510Z,26.43
2018-05-16T20:48:30.162Z,21.87
2018-05-16T20:51:02.094Z,18.93
2018-05-16T20:53:38.492Z,21.17
2018-05-16T20:56:10.474Z,21.20
2018-05-16T20:58:43.120Z,26.10
2018-05-16T21:01:15.026Z,23.57
2018-05-16T21:03:46.904Z,26.47
2018-05-16T21:06:19.050Z,30.43
2018-05-16T21:08:50.928Z,33.40
2018-05-16T21:11:22.859Z,33.90
2018-05-16T21:13:54.747Z,28.73
2018-05-16T21:16:26.638Z,53.50
2018-05-16T21:18:58.522Z,39.37
2018-05-16T21:21:30.414Z,45.53
2018-05-16T21:24:02.582Z,46.57
2018-05-16T21:26:34.755Z,45.67
2018-05-16T21:29:06.635Z,44.43
2018-05-16T21:31:38.530Z,33.93
